Alba, TX

2:38 PM CST on December 27, 2014 (GMT -0600)
Sulphur Springs Municipal | Change Station
CLOSE
Current Station
Airport
Location: Sulphur Springs,
Elevation: 489 ft
Nearby Weather Stations

Elev 489 ft 33.16 °N, 95.62 °W | Updated 23 minutes ago

Overcast
Overcast
41 °F
Feels Like 32 °F
N
17
Wind Variable Wind from NNW

Today
High -- | Low -- °F
--% Chance of Precip.
Yesterday
High -- | Low -- °F
Precip. -- in
7:23 AM 5:23 PM
Waxing Crescent, 40% visible
Pressure 30.18 in
Visibility 10.0 miles
Clouds Mostly Cloudy 1500 ft
Overcast 4000 ft
Windchill 32 °F
Dew Point 38 °F
Humidity 90%
Rainfall 0.13 in
Snow Depth Not available.
UV 1 out of 12
Pollen 10.70 out of 12
Air Quality Not available.
Flu Activity Not available.
METAR KSLR 272015Z AUTO 34015KT 10SM -RA BKN015 OVC040 05/04 A3018 RMK AO2 LTG DSNT SE AND NW T00500035

More Conditions Fewer Conditions

Pressure 30.18 in
Visibility 10.0 miles
Clouds Mostly Cloudy 1500 ft
Overcast 4000 ft
Windchill 32 °F
Dew Point 38 °F
Humidity 90%
Rainfall 0.13 in
Snow Depth Not available.
UV 1 out of 12
Pollen 10.70 out of 12
Air Quality Not available.
Flu Activity Not available.
METAR KSLR 272015Z AUTO 34015KT 10SM -RA BKN015 OVC040 05/04 A3018 RMK AO2 LTG DSNT SE AND NW T00500035

More Conditions Fewer Conditions

Nowcast | as of 1:33 PM CST on December 27, 2014

Scattered showers and thundershowers continue to move across the region. The heaviest rain will be from near Zavalla TX...Huxley TX... Mansfield la...Arcadia la...to El Dorado AR. The showers will move northeast around 35 miles an hour. Rainfall amounts will range from a trace to around one third of an inch...or isolated higher amounts. Dangerous lightning may be possible with thunderstorms...as well as brief heavy rain...small hail...and gusty winds.

×

10-Day Weather Forecast

Almanac

Astronomy

Dec. 27, 2014 Rise Set
Actual Time
Civil Twilight
Nautical Twilight
Astronomical Twilight
Moon
Length of Visible Light
Length of Day
Tomorrow will be .
, % of the Moon is Illuminated

Today's Extremes

State Highs State Lows

Community

WunderPhotos

Upload Photos

1,781,048 photos uploaded!

WunderBlogs® & News

Nearby

Air Quality

  Air Quality AQ Index Pollutant
Not available.

Snow Depth

Station Depth Elevation

Earthquake Activity

City Distance Mag. Time & Date
Minimum magnitude displayed is 2.5.

Coastal Water Temperatures

Place Temperature

Nearby Weather Stations